sensor_id;sensor_type;location;lat;lon;timestamp;pressure;altitude;pressure_sealevel;temperature;humidity
66430;BME280;53242;51.694;10.006;2023-08-07T00:00:45;98675.47;;;15.11;93.76
66430;BME280;53242;51.694;10.006;2023-08-07T00:03:08;98678.38;;;15.10;93.62
66430;BME280;53242;51.694;10.006;2023-08-07T00:05:30;98680.28;;;15.15;93.29
66430;BME280;53242;51.694;10.006;2023-08-07T00:07:52;98673.50;;;15.24;92.74
66430;BME280;53242;51.694;10.006;2023-08-07T00:10:15;98673.59;;;15.12;93.13
66430;BME280;53242;51.694;10.006;2023-08-07T00:12:37;98671.69;;;15.07;93.23
66430;BME280;53242;51.694;10.006;2023-08-07T00:15:01;98673.06;;;14.93;93.91
66430;BME280;53242;51.694;10.006;2023-08-07T00:17:24;98675.31;;;15.01;94.00
66430;BME280;53242;51.694;10.006;2023-08-07T00:19:46;98682.97;;;14.98;94.01
66430;BME280;53242;51.694;10.006;2023-08-07T00:22:08;98680.13;;;15.04;93.84
66430;BME280;53242;51.694;10.006;2023-08-07T00:24:31;98682.88;;;14.92;94.42
66430;BME280;53242;51.694;10.006;2023-08-07T00:26:53;98689.75;;;14.88;94.69
66430;BME280;53242;51.694;10.006;2023-08-07T00:29:16;98688.84;;;15.00;94.88
66430;BME280;53242;51.694;10.006;2023-08-07T00:31:38;98686.28;;;14.88;95.00
66430;BME280;53242;51.694;10.006;2023-08-07T00:34:00;98687.56;;;14.85;94.58
66430;BME280;53242;51.694;10.006;2023-08-07T00:36:24;98686.38;;;14.93;94.33
66430;BME280;53242;51.694;10.006;2023-08-07T00:38:47;98685.78;;;14.91;94.21
66430;BME280;53242;51.694;10.006;2023-08-07T00:41:10;98687.78;;;14.84;94.13
66430;BME280;53242;51.694;10.006;2023-08-07T00:43:32;98688.03;;;14.99;93.68
66430;BME280;53242;51.694;10.006;2023-08-07T00:45:54;98696.75;;;14.77;94.36
66430;BME280;53242;51.694;10.006;2023-08-07T00:48:17;98690.16;;;14.80;94.30
66430;BME280;53242;51.694;10.006;2023-08-07T00:50:41;98689.97;;;14.87;93.95
66430;BME280;53242;51.694;10.006;2023-08-07T00:53:04;98696.25;;;14.80;94.10
66430;BME280;53242;51.694;10.006;2023-08-07T00:55:28;98698.19;;;14.85;94.27
66430;BME280;53242;51.694;10.006;2023-08-07T00:57:52;98702.13;;;14.66;95.04
66430;BME280;53242;51.694;10.006;2023-08-07T01:00:15;98692.16;;;14.73;95.07
66430;BME280;53242;51.694;10.006;2023-08-07T01:02:39;98701.06;;;14.84;94.36
66430;BME280;53242;51.694;10.006;2023-08-07T01:05:01;98703.03;;;14.71;94.62
66430;BME280;53242;51.694;10.006;2023-08-07T01:07:23;98706.25;;;14.90;93.78
66430;BME280;53242;51.694;10.006;2023-08-07T01:09:46;98706.41;;;15.01;93.26
66430;BME280;53242;51.694;10.006;2023-08-07T01:12:16;98715.56;;;14.76;94.33
66430;BME280;53242;51.694;10.006;2023-08-07T01:15:08;98711.59;;;14.61;93.97
66430;BME280;53242;51.694;10.006;2023-08-07T01:17:33;98717.13;;;14.60;94.24
66430;BME280;53242;51.694;10.006;2023-08-07T01:19:56;98721.41;;;14.61;94.53
66430;BME280;53242;51.694;10.006;2023-08-07T01:22:20;98717.00;;;14.67;94.31
66430;BME280;53242;51.694;10.006;2023-08-07T01:24:47;98712.75;;;14.66;94.27
66430;BME280;53242;51.694;10.006;2023-08-07T01:27:13;98720.56;;;14.72;93.92
66430;BME280;53242;51.694;10.006;2023-08-07T01:32:13;98705.16;;;14.57;95.06
66430;BME280;53242;51.694;10.006;2023-08-07T01:34:41;98706.19;;;14.56;94.89
66430;BME280;53242;51.694;10.006;2023-08-07T01:37:03;98707.97;;;14.51;95.19
66430;BME280;53242;51.694;10.006;2023-08-07T01:39:27;98707.47;;;14.54;94.93
66430;BME280;53242;51.694;10.006;2023-08-07T01:41:50;98715.34;;;14.48;95.19
66430;BME280;53242;51.694;10.006;2023-08-07T01:44:13;98710.63;;;14.51;95.08
66430;BME280;53242;51.694;10.006;2023-08-07T01:46:35;98718.16;;;14.42;95.10
66430;BME280;53242;51.694;10.006;2023-08-07T01:48:57;98730.16;;;14.44;94.70
66430;BME280;53242;51.694;10.006;2023-08-07T01:51:20;98719.56;;;14.61;94.25
66430;BME280;53242;51.694;10.006;2023-08-07T01:53:42;98717.47;;;14.63;93.93
66430;BME280;53242;51.694;10.006;2023-08-07T01:56:05;98714.06;;;14.51;94.36
66430;BME280;53242;51.694;10.006;2023-08-07T01:58:27;98714.16;;;14.56;93.93
66430;BME280;53242;51.694;10.006;2023-08-07T02:00:50;98717.06;;;14.55;93.46
66430;BME280;53242;51.694;10.006;2023-08-07T02:03:12;98714.06;;;14.51;93.67
66430;BME280;53242;51.694;10.006;2023-08-07T02:05:35;98721.25;;;14.51;93.67
66430;BME280;53242;51.694;10.006;2023-08-07T02:07:58;98724.78;;;14.56;93.48
66430;BME280;53242;51.694;10.006;2023-08-07T02:10:20;98738.44;;;14.48;93.87
66430;BME280;53242;51.694;10.006;2023-08-07T02:12:43;98720.81;;;14.42;94.16
66430;BME280;53242;51.694;10.006;2023-08-07T02:15:05;98720.25;;;14.40;94.17
66430;BME280;53242;51.694;10.006;2023-08-07T02:17:28;98718.50;;;14.45;93.51
66430;BME280;53242;51.694;10.006;2023-08-07T02:19:52;98717.38;;;14.41;93.57
66430;BME280;53242;51.694;10.006;2023-08-07T02:22:15;98715.50;;;14.42;93.79
66430;BME280;53242;51.694;10.006;2023-08-07T02:24:38;98710.13;;;14.54;93.16
66430;BME280;53242;51.694;10.006;2023-08-07T02:27:02;98711.59;;;14.61;92.81
66430;BME280;53242;51.694;10.006;2023-08-07T02:29:24;98719.53;;;14.44;93.18
66430;BME280;53242;51.694;10.006;2023-08-07T02:31:47;98719.53;;;14.44;93.02
66430;BME280;53242;51.694;10.006;2023-08-07T02:34:09;98724.34;;;14.47;92.86
66430;BME280;53242;51.694;10.006;2023-08-07T02:36:32;98718.75;;;14.44;92.96
66430;BME280;53242;51.694;10.006;2023-08-07T02:38:54;98724.63;;;14.63;92.26
66430;BME280;53242;51.694;10.006;2023-08-07T02:41:17;98728.53;;;14.72;91.70
66430;BME280;53242;51.694;10.006;2023-08-07T02:43:39;98722.28;;;14.50;91.85
66430;BME280;53242;51.694;10.006;2023-08-07T02:46:02;98730.00;;;14.51;92.07
66430;BME280;53242;51.694;10.006;2023-08-07T02:48:24;98716.56;;;14.58;91.81
66430;BME280;53242;51.694;10.006;2023-08-07T02:50:47;98729.03;;;14.40;92.34
66430;BME280;53242;51.694;10.006;2023-08-07T02:53:09;98724.13;;;14.49;92.00
66430;BME280;53242;51.694;10.006;2023-08-07T02:55:31;98730.25;;;14.50;91.89
66430;BME280;53242;51.694;10.006;2023-08-07T02:57:54;98721.47;;;14.49;91.62
66430;BME280;53242;51.694;10.006;2023-08-07T03:00:17;98719.88;;;14.48;91.88
66430;BME280;53242;51.694;10.006;2023-08-07T03:02:39;98718.91;;;14.54;91.60
66430;BME280;53242;51.694;10.006;2023-08-07T03:05:02;98728.28;;;14.45;91.75
66430;BME280;53242;51.694;10.006;2023-08-07T03:07:25;98722.84;;;14.52;91.84
66430;BME280;53242;51.694;10.006;2023-08-07T03:09:48;98721.41;;;14.44;91.97
66430;BME280;53242;51.694;10.006;2023-08-07T03:12:10;98731.53;;;14.47;91.99
66430;BME280;53242;51.694;10.006;2023-08-07T03:14:33;98722.69;;;14.41;91.81
66430;BME280;53242;51.694;10.006;2023-08-07T03:16:55;98729.19;;;14.51;91.47
66430;BME280;53242;51.694;10.006;2023-08-07T03:19:18;98725.63;;;14.45;91.62
66430;BME280;53242;51.694;10.006;2023-08-07T03:21:43;98731.47;;;14.59;91.39
66430;BME280;53242;51.694;10.006;2023-08-07T03:24:06;98730.88;;;14.69;91.08
66430;BME280;53242;51.694;10.006;2023-08-07T03:26:30;98732.16;;;14.66;91.09
66430;BME280;53242;51.694;10.006;2023-08-07T03:28:52;98733.78;;;14.67;91.13
66430;BME280;53242;51.694;10.006;2023-08-07T03:31:17;98730.53;;;14.65;91.00
66430;BME280;53242;51.694;10.006;2023-08-07T03:33:39;98730.53;;;14.65;91.07
66430;BME280;53242;51.694;10.006;2023-08-07T03:36:02;98741.66;;;14.50;91.44
66430;BME280;53242;51.694;10.006;2023-08-07T03:38:24;98737.81;;;14.58;91.41
66430;BME280;53242;51.694;10.006;2023-08-07T03:40:49;98736.31;;;14.62;91.19
66430;BME280;53242;51.694;10.006;2023-08-07T03:43:12;98737.41;;;14.49;91.85
66430;BME280;53242;51.694;10.006;2023-08-07T03:45:35;98744.41;;;14.67;91.16
66430;BME280;53242;51.694;10.006;2023-08-07T03:47:58;98747.38;;;14.59;91.42
66430;BME280;53242;51.694;10.006;2023-08-07T03:50:20;98746.75;;;14.52;91.83
66430;BME280;53242;51.694;10.006;2023-08-07T03:52:43;98741.25;;;14.41;92.09
66430;BME280;53242;51.694;10.006;2023-08-07T03:55:06;98737.16;;;14.51;91.89
66430;BME280;53242;51.694;10.006;2023-08-07T03:57:28;98740.28;;;14.47;91.65
66430;BME280;53242;51.694;10.006;2023-08-07T03:59:50;98748.09;;;14.66;90.93
66430;BME280;53242;51.694;10.006;2023-08-07T04:02:13;98747.44;;;14.47;91.30
66430;BME280;53242;51.694;10.006;2023-08-07T04:04:35;98749.31;;;14.46;91.78
66430;BME280;53242;51.694;10.006;2023-08-07T04:06:58;98749.97;;;14.54;91.15
66430;BME280;53242;51.694;10.006;2023-08-07T04:09:20;98749.06;;;14.48;91.81
66430;BME280;53242;51.694;10.006;2023-08-07T04:11:43;98754.06;;;14.61;91.13
66430;BME280;53242;51.694;10.006;2023-08-07T04:14:05;98757.44;;;14.69;90.97
66430;BME280;53242;51.694;10.006;2023-08-07T04:16:28;98762.91;;;14.79;91.02
66430;BME280;53242;51.694;10.006;2023-08-07T04:18:51;98759.34;;;14.73;91.13
66430;BME280;53242;51.694;10.006;2023-08-07T04:21:13;98763.72;;;14.79;91.22
66430;BME280;53242;51.694;10.006;2023-08-07T04:23:35;98751.78;;;14.82;91.28
66430;BME280;53242;51.694;10.006;2023-08-07T04:25:59;98754.38;;;14.77;91.27
66430;BME280;53242;51.694;10.006;2023-08-07T04:28:23;98757.09;;;14.82;90.93
66430;BME280;53242;51.694;10.006;2023-08-07T04:30:49;98765.72;;;14.72;91.54
66430;BME280;53242;51.694;10.006;2023-08-07T04:33:12;98764.44;;;14.92;90.67
66430;BME280;53242;51.694;10.006;2023-08-07T04:35:35;98767.66;;;14.77;91.33
66430;BME280;53242;51.694;10.006;2023-08-07T04:37:57;98760.44;;;14.89;91.04
66430;BME280;53242;51.694;10.006;2023-08-07T04:40:20;98767.72;;;14.65;91.81
66430;BME280;53242;51.694;10.006;2023-08-07T04:42:42;98764.44;;;14.63;91.71
66430;BME280;53242;51.694;10.006;2023-08-07T04:45:05;98768.13;;;14.74;91.41
66430;BME280;53242;51.694;10.006;2023-08-07T04:47:28;98771.88;;;14.61;91.79
66430;BME280;53242;51.694;10.006;2023-08-07T04:49:50;98776.81;;;14.69;91.83
66430;BME280;53242;51.694;10.006;2023-08-07T04:52:13;98779.00;;;14.72;91.55
66430;BME280;53242;51.694;10.006;2023-08-07T04:54:35;98775.56;;;14.60;91.85
66430;BME280;53242;51.694;10.006;2023-08-07T04:56:58;98779.47;;;14.86;90.76
66430;BME280;53242;51.694;10.006;2023-08-07T04:59:20;98783.16;;;14.68;91.65
66430;BME280;53242;51.694;10.006;2023-08-07T05:01:43;98779.97;;;14.66;91.30
66430;BME280;53242;51.694;10.006;2023-08-07T05:04:05;98784.06;;;14.74;90.78
66430;BME280;53242;51.694;10.006;2023-08-07T05:06:28;98783.19;;;14.56;91.11
66430;BME280;53242;51.694;10.006;2023-08-07T05:08:50;98780.28;;;14.70;90.21
66430;BME280;53242;51.694;10.006;2023-08-07T05:11:12;98785.88;;;14.85;90.34
66430;BME280;53242;51.694;10.006;2023-08-07T05:13:35;98784.66;;;14.93;90.12
66430;BME280;53242;51.694;10.006;2023-08-07T05:15:57;98793.41;;;14.76;90.44
66430;BME280;53242;51.694;10.006;2023-08-07T05:18:20;98789.81;;;14.83;90.10
66430;BME280;53242;51.694;10.006;2023-08-07T05:20:42;98789.81;;;14.83;90.24
66430;BME280;53242;51.694;10.006;2023-08-07T05:23:05;98787.25;;;14.88;89.73
66430;BME280;53242;51.694;10.006;2023-08-07T05:25:27;98789.94;;;14.76;90.13
66430;BME280;53242;51.694;10.006;2023-08-07T05:27:50;98787.06;;;14.77;90.20
66430;BME280;53242;51.694;10.006;2023-08-07T05:30:13;98789.47;;;14.79;90.45
66430;BME280;53242;51.694;10.006;2023-08-07T05:32:35;98788.59;;;14.90;89.85
66430;BME280;53242;51.694;10.006;2023-08-07T05:34:59;98799.38;;;14.84;89.97
66430;BME280;53242;51.694;10.006;2023-08-07T05:37:22;98788.53;;;15.02;89.28
66430;BME280;53242;51.694;10.006;2023-08-07T05:39:44;98793.03;;;15.02;89.40
66430;BME280;53242;51.694;10.006;2023-08-07T05:42:07;98799.06;;;14.80;90.46
66430;BME280;53242;51.694;10.006;2023-08-07T05:44:31;98804.19;;;14.58;90.96
66430;BME280;53242;51.694;10.006;2023-08-07T05:46:54;98808.25;;;14.89;89.92
66430;BME280;53242;51.694;10.006;2023-08-07T05:49:16;98810.88;;;14.72;90.56
66430;BME280;53242;51.694;10.006;2023-08-07T05:51:39;98809.84;;;14.61;91.06
66430;BME280;53242;51.694;10.006;2023-08-07T05:54:01;98814.47;;;14.66;90.83
66430;BME280;53242;51.694;10.006;2023-08-07T05:56:24;98810.09;;;14.60;90.94
66430;BME280;53242;51.694;10.006;2023-08-07T05:58:46;98814.66;;;14.76;90.52
66430;BME280;53242;51.694;10.006;2023-08-07T06:01:08;98812.75;;;14.60;91.00
66430;BME280;53242;51.694;10.006;2023-08-07T06:03:31;98815.78;;;14.80;90.69
66430;BME280;53242;51.694;10.006;2023-08-07T06:05:54;98819.41;;;14.91;90.14
66430;BME280;53242;51.694;10.006;2023-08-07T06:08:16;98823.44;;;14.77;90.35
66430;BME280;53242;51.694;10.006;2023-08-07T06:10:38;98815.09;;;14.85;90.29
66430;BME280;53242;51.694;10.006;2023-08-07T06:13:01;98815.03;;;14.97;89.91
66430;BME280;53242;51.694;10.006;2023-08-07T06:15:23;98824.66;;;14.86;90.46
66430;BME280;53242;51.694;10.006;2023-08-07T06:17:46;98817.50;;;15.04;89.85
66430;BME280;53242;51.694;10.006;2023-08-07T06:20:08;98814.03;;;14.86;90.37
66430;BME280;53242;51.694;10.006;2023-08-07T06:22:32;98817.25;;;14.88;90.20
66430;BME280;53242;51.694;10.006;2023-08-07T06:24:54;98818.19;;;14.82;90.64
66430;BME280;53242;51.694;10.006;2023-08-07T06:27:17;98829.75;;;14.88;90.46
66430;BME280;53242;51.694;10.006;2023-08-07T06:29:39;98823.22;;;14.95;90.30
66430;BME280;53242;51.694;10.006;2023-08-07T06:32:02;98827.91;;;15.05;90.16
66430;BME280;53242;51.694;10.006;2023-08-07T06:34:24;98829.00;;;14.92;91.00
66430;BME280;53242;51.694;10.006;2023-08-07T06:36:47;98830.63;;;14.93;90.70
66430;BME280;53242;51.694;10.006;2023-08-07T06:39:09;98835.69;;;14.95;90.70
66430;BME280;53242;51.694;10.006;2023-08-07T06:41:31;98823.00;;;14.97;91.00
66430;BME280;53242;51.694;10.006;2023-08-07T06:43:54;98827.66;;;15.07;91.10
66430;BME280;53242;51.694;10.006;2023-08-07T06:46:16;98829.44;;;15.18;90.17
66430;BME280;53242;51.694;10.006;2023-08-07T06:48:39;98827.69;;;15.24;89.92
66430;BME280;53242;51.694;10.006;2023-08-07T06:51:01;98829.59;;;15.28;89.80
66430;BME280;53242;51.694;10.006;2023-08-07T06:53:24;98832.59;;;15.32;90.06
66430;BME280;53242;51.694;10.006;2023-08-07T06:55:46;98825.56;;;15.26;90.11
66430;BME280;53242;51.694;10.006;2023-08-07T06:58:10;98827.19;;;15.27;90.44
66430;BME280;53242;51.694;10.006;2023-08-07T07:00:32;98833.78;;;15.41;89.95
66430;BME280;53242;51.694;10.006;2023-08-07T07:02:57;98842.34;;;15.26;90.20
66430;BME280;53242;51.694;10.006;2023-08-07T07:05:19;98834.75;;;15.35;89.88
66430;BME280;53242;51.694;10.006;2023-08-07T07:07:42;98834.75;;;15.35;89.90
66430;BME280;53242;51.694;10.006;2023-08-07T07:10:04;98836.94;;;15.38;89.92
66430;BME280;53242;51.694;10.006;2023-08-07T07:12:27;98843.47;;;15.31;89.88
66430;BME280;53242;51.694;10.006;2023-08-07T07:14:50;98835.75;;;15.29;90.00
66430;BME280;53242;51.694;10.006;2023-08-07T07:17:12;98848.22;;;15.28;90.20
66430;BME280;53242;51.694;10.006;2023-08-07T07:19:35;98843.63;;;15.24;89.90
66430;BME280;53242;51.694;10.006;2023-08-07T07:21:57;98855.22;;;15.35;89.01
66430;BME280;53242;51.694;10.006;2023-08-07T07:24:19;98855.72;;;15.32;88.53
66430;BME280;53242;51.694;10.006;2023-08-07T07:26:42;98854.66;;;15.33;88.38
66430;BME280;53242;51.694;10.006;2023-08-07T07:29:04;98859.09;;;15.44;88.04
66430;BME280;53242;51.694;10.006;2023-08-07T07:31:27;98866.34;;;15.49;88.34
66430;BME280;53242;51.694;10.006;2023-08-07T07:33:49;98869.97;;;15.42;88.33
66430;BME280;53242;51.694;10.006;2023-08-07T07:36:16;98877.47;;;15.45;87.37
66430;BME280;53242;51.694;10.006;2023-08-07T07:38:39;98884.06;;;15.43;86.70
66430;BME280;53242;51.694;10.006;2023-08-07T07:41:01;98885.06;;;15.37;86.29
66430;BME280;53242;51.694;10.006;2023-08-07T07:43:24;98889.88;;;15.40;85.46
66430;BME280;53242;51.694;10.006;2023-08-07T07:45:46;98892.44;;;15.35;85.34
66430;BME280;53242;51.694;10.006;2023-08-07T07:48:08;98886.50;;;15.44;85.49
66430;BME280;53242;51.694;10.006;2023-08-07T07:50:31;98895.34;;;15.33;85.86
66430;BME280;53242;51.694;10.006;2023-08-07T07:52:53;98890.91;;;15.39;85.33
66430;BME280;53242;51.694;10.006;2023-08-07T07:55:16;98895.78;;;15.42;85.18
66430;BME280;53242;51.694;10.006;2023-08-07T07:57:38;98899.06;;;15.66;84.29
66430;BME280;53242;51.694;10.006;2023-08-07T08:00:01;98902.78;;;15.65;84.64
66430;BME280;53242;51.694;10.006;2023-08-07T08:02:34;98898.09;;;15.55;84.26
66430;BME280;53242;51.694;10.006;2023-08-07T08:04:56;98902.63;;;15.55;84.35
66430;BME280;53242;51.694;10.006;2023-08-07T08:07:18;98909.22;;;15.69;84.24
66430;BME280;53242;51.694;10.006;2023-08-07T08:09:41;98915.34;;;15.70;84.30
66430;BME280;53242;51.694;10.006;2023-08-07T08:12:04;98921.97;;;15.67;83.60
66430;BME280;53242;51.694;10.006;2023-08-07T08:14:27;98917.22;;;15.69;83.69
66430;BME280;53242;51.694;10.006;2023-08-07T08:16:49;98922.44;;;15.64;83.80
66430;BME280;53242;51.694;10.006;2023-08-07T08:19:12;98914.72;;;15.79;83.49
66430;BME280;53242;51.694;10.006;2023-08-07T08:21:34;98926.00;;;15.70;84.59
66430;BME280;53242;51.694;10.006;2023-08-07T08:23:56;98933.97;;;15.53;85.71
66430;BME280;53242;51.694;10.006;2023-08-07T08:26:19;98932.34;;;15.69;85.42
66430;BME280;53242;51.694;10.006;2023-08-07T08:28:41;98944.19;;;15.61;85.72
66430;BME280;53242;51.694;10.006;2023-08-07T08:31:04;98938.66;;;15.62;85.06
66430;BME280;53242;51.694;10.006;2023-08-07T08:33:27;98933.41;;;15.68;84.57
66430;BME280;53242;51.694;10.006;2023-08-07T08:35:49;98944.34;;;15.83;84.55
66430;BME280;53242;51.694;10.006;2023-08-07T08:38:12;98945.13;;;15.84;84.76
66430;BME280;53242;51.694;10.006;2023-08-07T08:40:35;98948.91;;;15.88;83.95
66430;BME280;53242;51.694;10.006;2023-08-07T08:43:00;98939.72;;;15.95;83.30
66430;BME280;53242;51.694;10.006;2023-08-07T08:45:25;98943.50;;;16.17;82.99
66430;BME280;53242;51.694;10.006;2023-08-07T08:47:50;98950.72;;;16.21;82.30
66430;BME280;53242;51.694;10.006;2023-08-07T08:50:14;98947.31;;;16.43;81.40
66430;BME280;53242;51.694;10.006;2023-08-07T08:52:38;98953.78;;;16.69;80.98
66430;BME280;53242;51.694;10.006;2023-08-07T08:55:01;98960.56;;;16.60;81.13
66430;BME280;53242;51.694;10.006;2023-08-07T08:57:25;98956.13;;;16.66;80.35
66430;BME280;53242;51.694;10.006;2023-08-07T08:59:48;98952.50;;;16.55;80.52
66430;BME280;53242;51.694;10.006;2023-08-07T09:02:12;98955.94;;;16.72;80.13
66430;BME280;53242;51.694;10.006;2023-08-07T09:04:34;98956.84;;;16.61;81.18
66430;BME280;53242;51.694;10.006;2023-08-07T09:06:57;98956.06;;;16.60;81.25
66430;BME280;53242;51.694;10.006;2023-08-07T09:09:20;98959.31;;;16.46;79.84
66430;BME280;53242;51.694;10.006;2023-08-07T09:11:44;98955.63;;;16.47;80.30
66430;BME280;53242;51.694;10.006;2023-08-07T09:14:07;98956.59;;;16.63;80.17
66430;BME280;53242;51.694;10.006;2023-08-07T09:16:32;98951.25;;;16.80;79.30
66430;BME280;53242;51.694;10.006;2023-08-07T09:18:55;98957.44;;;16.63;80.13
66430;BME280;53242;51.694;10.006;2023-08-07T09:21:18;98957.94;;;16.82;79.81
66430;BME280;53242;51.694;10.006;2023-08-07T09:23:41;98961.69;;;16.86;79.31
66430;BME280;53242;51.694;10.006;2023-08-07T09:26:04;98961.59;;;16.76;79.63
66430;BME280;53242;51.694;10.006;2023-08-07T09:28:28;98963.69;;;16.74;79.13
66430;BME280;53242;51.694;10.006;2023-08-07T09:30:52;98964.84;;;16.83;78.80
66430;BME280;53242;51.694;10.006;2023-08-07T09:33:14;98969.63;;;16.81;79.56
66430;BME280;53242;51.694;10.006;2023-08-07T09:35:38;98972.78;;;16.78;80.69
66430;BME280;53242;51.694;10.006;2023-08-07T09:38:01;98985.97;;;16.68;81.68
66430;BME280;53242;51.694;10.006;2023-08-07T09:40:24;98985.13;;;16.62;81.41
66430;BME280;53242;51.694;10.006;2023-08-07T09:42:50;98978.84;;;16.51;80.87
66430;BME280;53242;51.694;10.006;2023-08-07T09:45:25;98982.19;;;16.64;80.31
66430;BME280;53242;51.694;10.006;2023-08-07T09:48:03;98985.97;;;16.46;79.90
66430;BME280;53242;51.694;10.006;2023-08-07T09:50:27;98988.97;;;16.32;80.61
66430;BME280;53242;51.694;10.006;2023-08-07T09:52:49;98995.91;;;16.72;79.72
66430;BME280;53242;51.694;10.006;2023-08-07T09:55:12;98983.44;;;16.78;80.70
66430;BME280;53242;51.694;10.006;2023-08-07T09:57:35;98990.06;;;16.75;80.00
66430;BME280;53242;51.694;10.006;2023-08-07T09:59:59;98991.50;;;16.61;80.54
66430;BME280;53242;51.694;10.006;2023-08-07T10:02:22;98990.38;;;16.79;79.24
66430;BME280;53242;51.694;10.006;2023-08-07T10:04:45;98997.47;;;16.68;79.82
66430;BME280;53242;51.694;10.006;2023-08-07T10:07:08;98997.03;;;16.76;79.95
66430;BME280;53242;51.694;10.006;2023-08-07T10:09:32;98998.69;;;16.83;79.63
66430;BME280;53242;51.694;10.006;2023-08-07T10:11:55;98997.03;;;16.99;78.90
66430;BME280;53242;51.694;10.006;2023-08-07T10:14:18;98994.00;;;16.90;79.09
66430;BME280;53242;51.694;10.006;2023-08-07T10:16:40;98990.06;;;16.75;79.96
66430;BME280;53242;51.694;10.006;2023-08-07T10:19:03;99004.34;;;16.64;80.68
66430;BME280;53242;51.694;10.006;2023-08-07T10:21:26;99014.59;;;16.55;80.70
66430;BME280;53242;51.694;10.006;2023-08-07T10:23:52;99016.38;;;16.50;80.01
66430;BME280;53242;51.694;10.006;2023-08-07T10:26:16;99018.84;;;16.73;79.94
66430;BME280;53242;51.694;10.006;2023-08-07T10:28:40;99024.06;;;16.46;81.78
66430;BME280;53242;51.694;10.006;2023-08-07T10:31:02;99018.88;;;16.39;82.18
66430;BME280;53242;51.694;10.006;2023-08-07T10:33:26;99025.59;;;16.42;82.66
66430;BME280;53242;51.694;10.006;2023-08-07T10:35:49;99015.47;;;16.61;82.09
66430;BME280;53242;51.694;10.006;2023-08-07T10:38:14;99032.53;;;16.99;81.68
66430;BME280;53242;51.694;10.006;2023-08-07T10:43:24;99019.44;;;17.20;80.51
66430;BME280;53242;51.694;10.006;2023-08-07T10:45:46;99028.03;;;17.82;77.85
66430;BME280;53242;51.694;10.006;2023-08-07T10:48:13;99026.91;;;18.43;76.82
66430;BME280;53242;51.694;10.006;2023-08-07T10:53:20;99015.56;;;18.25;73.94
66430;BME280;53242;51.694;10.006;2023-08-07T10:55:45;99020.66;;;18.21;73.82
66430;BME280;53242;51.694;10.006;2023-08-07T10:58:29;99020.69;;;17.94;72.86
66430;BME280;53242;51.694;10.006;2023-08-07T11:01:15;99015.16;;;17.73;73.72
66430;BME280;53242;51.694;10.006;2023-08-07T11:03:43;99026.81;;;17.40;75.45
66430;BME280;53242;51.694;10.006;2023-08-07T11:06:05;99031.81;;;17.31;74.96
66430;BME280;53242;51.694;10.006;2023-08-07T11:08:29;99048.75;;;17.20;75.02
66430;BME280;53242;51.694;10.006;2023-08-07T11:10:51;99059.00;;;16.89;77.82
66430;BME280;53242;51.694;10.006;2023-08-07T11:13:15;99068.06;;;16.49;79.45
66430;BME280;53242;51.694;10.006;2023-08-07T11:15:38;99070.31;;;16.40;81.39
66430;BME280;53242;51.694;10.006;2023-08-07T11:18:00;99070.69;;;16.32;82.21
66430;BME280;53242;51.694;10.006;2023-08-07T11:20:23;99077.25;;;16.24;83.27
66430;BME280;53242;51.694;10.006;2023-08-07T11:22:45;99083.13;;;16.09;84.69
66430;BME280;53242;51.694;10.006;2023-08-07T11:25:07;99060.13;;;16.03;82.58
66430;BME280;53242;51.694;10.006;2023-08-07T11:27:33;99064.34;;;16.16;83.08
66430;BME280;53242;51.694;10.006;2023-08-07T11:29:55;99063.53;;;16.15;83.23
66430;BME280;53242;51.694;10.006;2023-08-07T11:32:20;99065.47;;;16.37;81.75
66430;BME280;53242;51.694;10.006;2023-08-07T11:34:49;99071.03;;;16.35;81.50
66430;BME280;53242;51.694;10.006;2023-08-07T11:37:15;99067.13;;;16.60;80.44
66430;BME280;53242;51.694;10.006;2023-08-07T11:39:42;99074.44;;;16.48;80.58
66430;BME280;53242;51.694;10.006;2023-08-07T11:42:05;99066.25;;;16.54;80.89
66430;BME280;53242;51.694;10.006;2023-08-07T11:44:33;99070.22;;;16.52;81.08
66430;BME280;53242;51.694;10.006;2023-08-07T11:46:55;99061.34;;;16.63;80.48
66430;BME280;53242;51.694;10.006;2023-08-07T11:49:18;99051.53;;;16.69;80.28
66430;BME280;53242;51.694;10.006;2023-08-07T11:51:42;99055.81;;;16.70;80.16
66430;BME280;53242;51.694;10.006;2023-08-07T11:54:05;99055.81;;;16.70;79.34
66430;BME280;53242;51.694;10.006;2023-08-07T11:56:27;99048.59;;;16.87;79.18
66430;BME280;53242;51.694;10.006;2023-08-07T11:58:51;99063.22;;;17.02;79.82
66430;BME280;53242;51.694;10.006;2023-08-07T12:01:23;99071.06;;;17.14;78.85
66430;BME280;53242;51.694;10.006;2023-08-07T12:03:54;99067.47;;;17.25;78.69
66430;BME280;53242;51.694;10.006;2023-08-07T12:06:17;99060.81;;;17.50;77.58
66430;BME280;53242;51.694;10.006;2023-08-07T12:08:40;99062.75;;;17.54;77.17
66430;BME280;53242;51.694;10.006;2023-08-07T12:11:07;99061.28;;;17.41;77.51
66430;BME280;53242;51.694;10.006;2023-08-07T12:13:31;99069.03;;;17.21;78.37
66430;BME280;53242;51.694;10.006;2023-08-07T12:15:55;99074.66;;;17.02;77.60
66430;BME280;53242;51.694;10.006;2023-08-07T12:18:19;99071.88;;;16.92;79.11
66430;BME280;53242;51.694;10.006;2023-08-07T12:20:43;99093.06;;;16.48;80.12
66430;BME280;53242;51.694;10.006;2023-08-07T12:23:13;99101.69;;;16.38;82.00
66430;BME280;53242;51.694;10.006;2023-08-07T12:25:36;99099.38;;;16.41;81.18
66430;BME280;53242;51.694;10.006;2023-08-07T12:27:58;99098.72;;;16.51;81.55
66430;BME280;53242;51.694;10.006;2023-08-07T12:30:21;99102.50;;;16.72;80.56
66430;BME280;53242;51.694;10.006;2023-08-07T12:32:43;99096.81;;;17.03;79.09
66430;BME280;53242;51.694;10.006;2023-08-07T12:35:06;99096.38;;;17.11;78.51
66430;BME280;53242;51.694;10.006;2023-08-07T12:37:31;99092.03;;;17.27;79.54